createdAt,value
2019-04-04T00:00:08.520Z,0.00
2019-04-04T00:01:08.548Z,0.00
2019-04-04T00:02:08.576Z,0.00
2019-04-04T00:03:08.609Z,0.00
2019-04-04T00:04:08.633Z,0.00
2019-04-04T00:05:08.658Z,0.00
2019-04-04T00:06:08.684Z,0.00
2019-04-04T00:07:08.715Z,0.00
2019-04-04T00:08:08.742Z,0.00
2019-04-04T00:09:08.772Z,0.00
2019-04-04T00:10:08.799Z,0.00
2019-04-04T00:11:08.825Z,0.00
2019-04-04T00:12:08.853Z,0.00
2019-04-04T00:13:09.209Z,0.00
2019-04-04T00:14:08.909Z,0.00
2019-04-04T00:15:08.936Z,0.00
2019-04-04T00:16:08.964Z,0.00
2019-04-04T00:17:08.990Z,0.00
2019-04-04T00:18:09.019Z,0.00
2019-04-04T00:19:09.046Z,0.00
2019-04-04T00:20:09.076Z,0.00
2019-04-04T00:21:09.101Z,0.00
2019-04-04T00:22:09.132Z,0.00
2019-04-04T00:23:09.158Z,0.00
2019-04-04T00:24:09.748Z,0.00
2019-04-04T00:25:10.440Z,0.00
2019-04-04T00:26:10.858Z,0.00
2019-04-04T00:27:09.267Z,0.00
2019-04-04T00:28:09.295Z,0.00
2019-04-04T00:29:09.322Z,0.00
2019-04-04T00:30:09.349Z,0.00
2019-04-04T00:31:09.382Z,0.00
2019-04-04T00:32:09.405Z,0.00
2019-04-04T00:33:09.434Z,0.00
2019-04-04T00:34:09.462Z,0.00
2019-04-04T00:35:09.488Z,0.00
2019-04-04T00:36:09.515Z,0.00
2019-04-04T00:37:09.547Z,0.00
2019-04-04T00:38:09.571Z,0.00
2019-04-04T00:39:10.014Z,0.00
2019-04-04T00:40:11.719Z,0.00
2019-04-04T00:41:11.032Z,0.00
2019-04-04T00:42:09.682Z,0.00
2019-04-04T00:43:09.708Z,0.00
2019-04-04T00:44:09.736Z,0.00
2019-04-04T00:45:09.765Z,0.00
2019-04-04T00:46:09.794Z,0.00
2019-04-04T00:47:09.821Z,0.00
2019-04-04T00:48:09.848Z,0.00
2019-04-04T00:49:09.873Z,0.00
2019-04-04T00:50:09.901Z,0.00
2019-04-04T00:51:09.928Z,0.00
2019-04-04T00:52:10.832Z,0.00
2019-04-04T00:53:11.777Z,0.00
2019-04-04T00:54:10.012Z,0.00
2019-04-04T00:55:10.036Z,0.00
2019-04-04T00:56:10.064Z,0.00
2019-04-04T00:57:10.091Z,0.00
2019-04-04T00:58:10.117Z,0.00
2019-04-04T00:59:10.146Z,0.00
2019-04-04T01:00:10.174Z,0.00
2019-04-04T01:01:10.201Z,0.00
2019-04-04T01:02:10.227Z,0.00
2019-04-04T01:03:10.258Z,0.00
2019-04-04T01:04:10.285Z,0.00
2019-04-04T01:05:10.312Z,0.00
2019-04-04T01:06:10.343Z,0.00
2019-04-04T01:07:10.362Z,0.00
2019-04-04T01:08:10.390Z,0.00
2019-04-04T01:09:13.126Z,0.00
2019-04-04T01:10:10.450Z,0.00
2019-04-04T01:11:10.476Z,0.00
2019-04-04T01:12:10.497Z,0.00
2019-04-04T01:13:10.524Z,0.00
2019-04-04T01:14:10.551Z,0.00
2019-04-04T01:15:10.585Z,0.00
2019-04-04T01:16:10.605Z,0.00
2019-04-04T01:17:10.631Z,0.00
2019-04-04T01:18:10.660Z,0.00
2019-04-04T01:19:10.688Z,0.00
2019-04-04T01:20:10.712Z,0.00
2019-04-04T01:21:10.736Z,0.00
2019-04-04T01:22:10.766Z,0.00
2019-04-04T01:23:10.794Z,0.00
2019-04-04T01:24:10.817Z,0.00
2019-04-04T01:25:10.845Z,0.00
2019-04-04T01:26:10.871Z,0.00
2019-04-04T01:27:10.897Z,0.00
2019-04-04T01:28:10.928Z,0.00
2019-04-04T01:29:11.226Z,0.00
2019-04-04T01:30:12.574Z,0.00
2019-04-04T01:31:11.009Z,0.00
2019-04-04T01:32:11.031Z,0.00
2019-04-04T01:33:11.058Z,0.00
2019-04-04T01:34:11.087Z,0.00
2019-04-04T01:35:11.110Z,0.00
2019-04-04T01:36:11.139Z,0.00
2019-04-04T01:37:11.164Z,0.00
2019-04-04T01:38:11.190Z,0.00
2019-04-04T01:39:11.217Z,0.00
2019-04-04T01:40:11.243Z,0.00
2019-04-04T01:41:11.274Z,0.00
2019-04-04T01:42:11.299Z,0.00
2019-04-04T01:43:11.324Z,0.00
2019-04-04T01:44:11.808Z,0.00
2019-04-04T01:45:13.231Z,0.00
2019-04-04T01:46:12.984Z,0.00
2019-04-04T01:47:11.434Z,0.00
2019-04-04T01:48:11.461Z,0.00
2019-04-04T01:49:11.483Z,0.00
2019-04-04T01:50:11.510Z,0.00
2019-04-04T01:51:11.537Z,0.00
2019-04-04T01:52:11.569Z,0.00
2019-04-04T01:53:11.594Z,0.00
2019-04-04T01:54:11.618Z,0.00
2019-04-04T01:55:11.646Z,0.00
2019-04-04T01:56:11.741Z,0.00
2019-04-04T01:57:11.705Z,0.00
2019-04-04T01:58:11.724Z,0.00
2019-04-04T01:59:12.247Z,0.00
2019-04-04T02:00:14.666Z,0.00
2019-04-04T02:01:11.805Z,0.00
2019-04-04T02:02:11.837Z,0.00
2019-04-04T02:03:11.858Z,0.00
2019-04-04T02:04:11.886Z,0.00
2019-04-04T02:05:11.911Z,0.00
2019-04-04T02:06:11.936Z,0.00
2019-04-04T02:07:11.964Z,0.00
2019-04-04T02:08:11.995Z,0.00
2019-04-04T02:09:12.017Z,0.00
2019-04-04T02:10:12.048Z,0.00
2019-04-04T02:11:12.074Z,0.00
2019-04-04T02:12:12.100Z,0.00
2019-04-04T02:13:12.126Z,0.00
2019-04-04T02:14:12.515Z,0.00
2019-04-04T02:15:14.333Z,0.00
2019-04-04T02:16:12.206Z,0.00
2019-04-04T02:17:12.236Z,0.00
2019-04-04T02:18:12.263Z,0.00
2019-04-04T02:19:12.290Z,0.00
2019-04-04T02:20:12.321Z,0.00
2019-04-04T02:21:12.340Z,0.00
2019-04-04T02:22:12.366Z,0.00
2019-04-04T02:23:12.393Z,0.00
2019-04-04T02:24:12.423Z,0.00
2019-04-04T02:25:12.448Z,0.00
2019-04-04T02:26:12.473Z,0.00
2019-04-04T02:27:12.503Z,0.00
2019-04-04T02:28:12.529Z,0.00
2019-04-04T02:29:12.553Z,0.00
2019-04-04T02:30:16.119Z,0.00
2019-04-04T02:31:12.609Z,0.00
2019-04-04T02:32:12.640Z,0.00
2019-04-04T02:33:12.668Z,0.00
2019-04-04T02:34:12.688Z,0.00
2019-04-04T02:35:12.716Z,0.00
2019-04-04T02:36:16.264Z,0.00
2019-04-04T02:37:12.768Z,0.00
2019-04-04T02:38:12.799Z,0.00
2019-04-04T02:39:12.821Z,0.00
2019-04-04T02:40:12.870Z,0.00
2019-04-04T02:41:15.527Z,0.00
2019-04-04T02:42:12.903Z,0.00
2019-04-04T02:43:12.929Z,0.00
2019-04-04T02:44:12.959Z,0.00
2019-04-04T02:45:12.985Z,0.00
2019-04-04T02:46:13.009Z,0.00
2019-04-04T02:47:16.813Z,0.00
2019-04-04T02:48:13.068Z,0.00
2019-04-04T02:49:13.087Z,0.00
2019-04-04T02:50:13.116Z,0.00
2019-04-04T02:51:13.147Z,0.00
2019-04-04T02:52:14.074Z,0.00
2019-04-04T02:53:13.201Z,0.00
2019-04-04T02:54:13.254Z,0.00
2019-04-04T02:55:13.254Z,0.00
2019-04-04T02:56:13.284Z,0.00
2019-04-04T02:57:13.303Z,0.00
2019-04-04T02:58:14.974Z,0.00
2019-04-04T02:59:13.357Z,0.00
2019-04-04T03:00:13.384Z,0.00
2019-04-04T03:01:13.417Z,0.00
2019-04-04T03:02:13.436Z,0.00
2019-04-04T03:03:13.467Z,0.00
2019-04-04T03:04:14.447Z,0.00
2019-04-04T03:05:13.519Z,0.00
2019-04-04T03:06:13.550Z,0.00
2019-04-04T03:07:13.572Z,0.00
2019-04-04T03:08:13.602Z,4.00
2019-04-04T03:09:13.623Z,4.00
2019-04-04T03:10:16.391Z,0.00
2019-04-04T03:11:13.680Z,0.00
2019-04-04T03:12:13.706Z,4.00
2019-04-04T03:13:13.734Z,4.00
2019-04-04T03:14:13.761Z,4.00
2019-04-04T03:15:13.783Z,4.00
2019-04-04T03:16:13.814Z,4.00
2019-04-04T03:17:13.848Z,8.00
2019-04-04T03:18:13.863Z,8.00
2019-04-04T03:19:13.917Z,8.00
2019-04-04T03:20:17.311Z,8.00
2019-04-04T03:21:13.961Z,12.00
2019-04-04T03:22:13.969Z,12.00
2019-04-04T03:23:14.001Z,12.00
2019-04-04T03:24:14.024Z,16.00
2019-04-04T03:25:14.780Z,20.00
2019-04-04T03:26:14.078Z,24.00
2019-04-04T03:27:14.110Z,28.00
2019-04-04T03:28:14.133Z,28.00
2019-04-04T03:29:14.159Z,36.00
2019-04-04T03:30:16.618Z,44.00
2019-04-04T03:31:14.214Z,48.00
2019-04-04T03:32:16.264Z,56.00
2019-04-04T03:33:14.261Z,64.00
2019-04-04T03:34:14.331Z,72.00
2019-04-04T03:35:14.319Z,84.00
2019-04-04T03:36:14.341Z,96.00
2019-04-04T03:37:14.375Z,104.00
2019-04-04T03:38:14.394Z,120.00
2019-04-04T03:39:19.358Z,136.00
2019-04-04T03:40:14.447Z,152.00
2019-04-04T03:41:14.473Z,172.00
2019-04-04T03:42:14.501Z,188.00
2019-04-04T03:43:16.081Z,212.00
2019-04-04T03:44:14.553Z,232.00
2019-04-04T03:45:14.582Z,260.00
2019-04-04T03:46:14.613Z,288.00
2019-04-04T03:47:14.633Z,316.00
2019-04-04T03:48:17.459Z,344.00
2019-04-04T03:49:14.686Z,376.00
2019-04-04T03:50:14.714Z,412.00
2019-04-04T03:51:14.742Z,448.00
2019-04-04T03:52:14.770Z,484.00
2019-04-04T03:53:17.388Z,524.00
2019-04-04T03:54:14.817Z,564.00
2019-04-04T03:55:14.847Z,608.00
2019-04-04T03:56:14.872Z,656.00
2019-04-04T03:57:14.901Z,704.00
2019-04-04T03:58:14.927Z,756.00
2019-04-04T03:59:14.963Z,804.00
2019-04-04T04:00:14.978Z,856.00
2019-04-04T04:01:15.031Z,912.00
2019-04-04T04:02:17.941Z,972.00
2019-04-04T04:03:15.066Z,1028.00
2019-04-04T04:04:15.106Z,1092.00
2019-04-04T04:05:15.111Z,1152.00
2019-04-04T04:06:15.138Z,1216.00
2019-04-04T04:07:15.419Z,1276.00
2019-04-04T04:08:15.190Z,1344.00
2019-04-04T04:09:15.217Z,1412.00
2019-04-04T04:10:15.244Z,1496.00
2019-04-04T04:11:15.274Z,1572.00
2019-04-04T04:12:15.297Z,1652.00
2019-04-04T04:13:17.191Z,1732.00
2019-04-04T04:14:15.350Z,1820.00
2019-04-04T04:15:15.375Z,1916.00
2019-04-04T04:16:15.403Z,2000.00
2019-04-04T04:17:15.430Z,2088.00
2019-04-04T04:18:20.231Z,2172.00
2019-04-04T04:19:15.492Z,2268.00
2019-04-04T04:20:15.512Z,2340.00
2019-04-04T04:21:15.537Z,2420.00
2019-04-04T04:22:18.148Z,2528.00
2019-04-04T04:23:15.599Z,2624.00
2019-04-04T04:24:15.620Z,2700.00
2019-04-04T04:25:15.644Z,2752.00
2019-04-04T04:26:15.675Z,2832.00
2019-04-04T04:27:15.835Z,2956.00
2019-04-04T04:28:19.798Z,3060.00
2019-04-04T04:29:15.757Z,3128.00
2019-04-04T04:30:15.781Z,3244.00
2019-04-04T04:31:15.821Z,3308.00
2019-04-04T04:32:15.851Z,3448.00
2019-04-04T04:33:15.863Z,3636.00
2019-04-04T04:34:15.892Z,3756.00
2019-04-04T04:35:15.924Z,3840.00
2019-04-04T04:36:16.547Z,3936.00
2019-04-04T04:37:19.852Z,4128.00
2019-04-04T04:38:15.999Z,4340.00
2019-04-04T04:39:16.027Z,4452.00
2019-04-04T04:40:16.054Z,4520.00
2019-04-04T04:41:19.934Z,4720.00
2019-04-04T04:42:16.109Z,4844.00
2019-04-04T04:43:16.267Z,4948.00
2019-04-04T04:44:16.166Z,5076.00
2019-04-04T04:45:16.195Z,5232.00
2019-04-04T04:46:17.870Z,5360.00
2019-04-04T04:47:16.255Z,5512.00
2019-04-04T04:48:16.279Z,5636.00
2019-04-04T04:49:16.382Z,5792.00
2019-04-04T04:50:16.335Z,5936.00
2019-04-04T04:51:16.368Z,6100.00
2019-04-04T04:52:16.395Z,6240.00
2019-04-04T04:53:18.937Z,6360.00
2019-04-04T04:54:16.451Z,6476.00
2019-04-04T04:55:16.481Z,6648.00
2019-04-04T04:56:17.561Z,6820.00
2019-04-04T04:57:28.763Z,6940.00
2019-04-04T04:58:16.569Z,7132.00
2019-04-04T04:59:16.598Z,7348.00
2019-04-04T05:00:16.782Z,7544.00
2019-04-04T05:01:18.321Z,7704.00
2019-04-04T05:02:16.687Z,7848.00
2019-04-04T05:03:16.715Z,7920.00
2019-04-04T05:04:16.748Z,8224.00
2019-04-04T05:05:16.773Z,8552.00
2019-04-04T05:06:16.807Z,8824.00
2019-04-04T05:07:16.835Z,9064.00
2019-04-04T05:08:16.865Z,9304.00
2019-04-04T05:09:16.898Z,9476.00
2019-04-04T05:10:16.927Z,9672.00
2019-04-04T05:11:19.015Z,9860.00
2019-04-04T05:12:16.988Z,10048.00
2019-04-04T05:13:17.019Z,10204.00
2019-04-04T05:14:17.046Z,10292.00
2019-04-04T05:15:17.081Z,10528.00
2019-04-04T05:16:17.109Z,10600.00
2019-04-04T05:17:17.139Z,10900.00
2019-04-04T05:18:17.171Z,11240.00
2019-04-04T05:19:18.982Z,11328.00
2019-04-04T05:20:17.232Z,11392.00
2019-04-04T05:21:25.006Z,11648.00
2019-04-04T05:22:17.296Z,11824.00
2019-04-04T05:23:17.386Z,11848.00
2019-04-04T05:24:18.091Z,11952.00
2019-04-04T05:25:17.389Z,12152.00
2019-04-04T05:26:17.424Z,12396.00
2019-04-04T05:27:17.456Z,12676.00
2019-04-04T05:28:17.485Z,12832.00
2019-04-04T05:29:17.521Z,13056.00
2019-04-04T05:30:20.273Z,13256.00
2019-04-04T05:31:18.165Z,13504.00
2019-04-04T05:32:20.946Z,13660.00
2019-04-04T05:33:17.643Z,13972.00
2019-04-04T05:34:17.693Z,14264.00
2019-04-04T05:35:17.711Z,14240.00
2019-04-04T05:36:17.741Z,14528.00
2019-04-04T05:37:17.772Z,14624.00
2019-04-04T05:38:17.814Z,15104.00
2019-04-04T05:39:18.647Z,15168.00
2019-04-04T05:40:17.888Z,15520.00
2019-04-04T05:41:17.902Z,15648.00
2019-04-04T05:42:17.934Z,15968.00
2019-04-04T05:43:17.967Z,15968.00
2019-04-04T05:44:18.013Z,16800.00
2019-04-04T05:45:18.034Z,17248.00
2019-04-04T05:46:19.049Z,17312.00
2019-04-04T05:47:18.098Z,17504.00
2019-04-04T05:48:18.131Z,18080.00
2019-04-04T05:49:18.178Z,18784.00
2019-04-04T05:50:18.199Z,19808.00
2019-04-04T05:51:18.233Z,20000.00
2019-04-04T05:52:18.263Z,19520.00
2019-04-04T05:53:21.202Z,19392.00
2019-04-04T05:54:18.331Z,19520.00
2019-04-04T05:55:18.391Z,19776.00
2019-04-04T05:56:18.398Z,19840.00
2019-04-04T05:57:20.027Z,20064.00
2019-04-04T05:58:21.768Z,20640.00
2019-04-04T05:59:18.533Z,21312.00
2019-04-04T06:00:18.545Z,21280.00
2019-04-04T06:01:18.560Z,22080.00
2019-04-04T06:02:18.605Z,22112.00
2019-04-04T06:03:18.632Z,22656.00
2019-04-04T06:04:19.560Z,24544.00
2019-04-04T06:05:18.702Z,25536.00
2019-04-04T06:06:18.732Z,24320.00
2019-04-04T06:07:18.793Z,22944.00
2019-04-04T06:08:18.823Z,22944.00
2019-04-04T06:09:18.834Z,24224.00
2019-04-04T06:10:19.201Z,23936.00
2019-04-04T06:11:20.765Z,22688.00
2019-04-04T06:12:18.941Z,23712.00
2019-04-04T06:13:22.064Z,23936.00
2019-04-04T06:14:20.556Z,23168.00
2019-04-04T06:15:19.042Z,22304.00
2019-04-04T06:16:19.077Z,21920.00
2019-04-04T06:17:19.109Z,21472.00
2019-04-04T06:18:19.144Z,21952.00
2019-04-04T06:19:19.180Z,22816.00
2019-04-04T06:20:19.219Z,22656.00
2019-04-04T06:21:19.304Z,21696.00
2019-04-04T06:22:21.152Z,20352.00
2019-04-04T06:23:20.599Z,19008.00
2019-04-04T06:24:19.356Z,17728.00
2019-04-04T06:25:19.389Z,16064.00
2019-04-04T06:26:19.426Z,15396.00
2019-04-04T06:27:19.460Z,15276.00
2019-04-04T06:28:19.495Z,15424.00
2019-04-04T06:29:19.531Z,15564.00
2019-04-04T06:30:20.158Z,15728.00
2019-04-04T06:31:19.601Z,16064.00
2019-04-04T06:32:19.639Z,16376.00
2019-04-04T06:33:19.672Z,16588.00
2019-04-04T06:34:19.710Z,17120.00
2019-04-04T06:35:19.744Z,17696.00
2019-04-04T06:36:19.782Z,18496.00
2019-04-04T06:37:19.984Z,18816.00
2019-04-04T06:38:22.951Z,19200.00
2019-04-04T06:39:19.887Z,19680.00
2019-04-04T06:40:19.922Z,20224.00
2019-04-04T06:41:19.966Z,21376.00
2019-04-04T06:42:19.995Z,21536.00
2019-04-04T06:43:20.034Z,23424.00
2019-04-04T06:44:20.069Z,25568.00
2019-04-04T06:45:20.103Z,26752.00
2019-04-04T06:46:22.755Z,27584.00
2019-04-04T06:47:20.177Z,28640.00
2019-04-04T06:48:20.214Z,28928.00
2019-04-04T06:49:20.251Z,29504.00
2019-04-04T06:50:20.288Z,30048.00
2019-04-04T06:51:20.326Z,30272.00
2019-04-04T06:52:23.292Z,29600.00
2019-04-04T06:53:22.273Z,30272.00
2019-04-04T06:54:20.435Z,31264.00
2019-04-04T06:55:20.469Z,32224.00
2019-04-04T06:56:20.508Z,33728.00
2019-04-04T06:57:20.542Z,34080.00
2019-04-04T06:58:20.581Z,34208.00
2019-04-04T06:59:20.620Z,32992.00
2019-04-04T07:00:20.660Z,33120.00
2019-04-04T07:01:21.920Z,34688.00
2019-04-04T07:02:21.987Z,35552.00
2019-04-04T07:03:20.765Z,36128.00
2019-04-04T07:04:20.804Z,36896.00
2019-04-04T07:05:20.840Z,37120.00
2019-04-04T07:06:20.880Z,36608.00
2019-04-04T07:07:20.916Z,36256.00
2019-04-04T07:08:20.957Z,39232.00
2019-04-04T07:09:20.988Z,40096.00
2019-04-04T07:10:21.956Z,40608.00
2019-04-04T07:11:21.843Z,40608.00
2019-04-04T07:12:27.890Z,40416.00
2019-04-04T07:13:26.493Z,41504.00
2019-04-04T07:14:21.176Z,43264.00
2019-04-04T07:15:21.216Z,44032.00
2019-04-04T07:16:21.252Z,44064.00
2019-04-04T07:17:21.289Z,45504.00
2019-04-04T07:18:21.329Z,45056.00
2019-04-04T07:19:21.366Z,43616.00
2019-04-04T07:20:21.405Z,42784.00
2019-04-04T07:21:21.440Z,43584.00
2019-04-04T07:22:24.602Z,45568.00
2019-04-04T07:23:21.514Z,44736.00
2019-04-04T07:24:21.552Z,44832.00
2019-04-04T07:25:21.590Z,44096.00
2019-04-04T07:26:21.641Z,42272.00
2019-04-04T07:27:21.666Z,43296.00
2019-04-04T07:28:21.702Z,44608.00
2019-04-04T07:29:23.006Z,45664.00
2019-04-04T07:30:21.777Z,46624.00
2019-04-04T07:31:21.815Z,47712.00
2019-04-04T07:32:21.857Z,48512.00
2019-04-04T07:33:21.891Z,49472.00
2019-04-04T07:34:21.931Z,49024.00
2019-04-04T07:35:21.965Z,47392.00
2019-04-04T07:36:22.006Z,48032.00
2019-04-04T07:37:22.756Z,46816.00
2019-04-04T07:38:22.078Z,45536.00
2019-04-04T07:39:22.120Z,47968.00
2019-04-04T07:40:22.154Z,48384.00
2019-04-04T07:41:22.194Z,49312.00
2019-04-04T07:42:22.231Z,49248.00
2019-04-04T07:43:22.268Z,49280.00
2019-04-04T07:44:23.376Z,50208.00
2019-04-04T07:45:25.936Z,50112.00
2019-04-04T07:46:22.380Z,48896.00
2019-04-04T07:47:22.421Z,47296.00
2019-04-04T07:48:22.458Z,45824.00
2019-04-04T07:49:23.219Z,47296.00
2019-04-04T07:50:24.142Z,48544.00
2019-04-04T07:51:22.575Z,48224.00
2019-04-04T07:52:22.611Z,49600.00
2019-04-04T07:53:22.646Z,49888.00
2019-04-04T07:54:22.685Z,49472.00
2019-04-04T07:55:22.723Z,51744.00
2019-04-04T07:56:22.762Z,51744.00
2019-04-04T07:57:22.801Z,50880.00
2019-04-04T07:58:22.840Z,50144.00
2019-04-04T07:59:22.879Z,51072.00
2019-04-04T08:00:22.914Z,54176.00
2019-04-04T08:01:22.955Z,54240.00
2019-04-04T08:02:22.991Z,53120.00
2019-04-04T08:03:23.032Z,53472.00
2019-04-04T08:04:23.067Z,52992.00
2019-04-04T08:05:23.105Z,52160.00
2019-04-04T08:06:23.146Z,52224.00
2019-04-04T08:07:23.183Z,54688.00
2019-04-04T08:08:23.230Z,50144.00
2019-04-04T08:09:26.085Z,47488.00
2019-04-04T08:10:23.303Z,51328.00
2019-04-04T08:11:23.345Z,54048.00
2019-04-04T08:12:23.378Z,54272.00
2019-04-04T08:13:23.418Z,53216.00
2019-04-04T08:14:23.454Z,57568.00
2019-04-04T08:15:23.496Z,62080.00
2019-04-04T08:16:23.533Z,60992.00
2019-04-04T08:17:23.571Z,64576.00
2019-04-04T08:18:23.612Z,67232.00
2019-04-04T08:19:23.651Z,66304.00
2019-04-04T08:20:23.725Z,64160.00
2019-04-04T08:21:23.729Z,59936.00
2019-04-04T08:22:23.769Z,58880.00
2019-04-04T08:23:23.810Z,62432.00
2019-04-04T08:24:23.847Z,62240.00
2019-04-04T08:25:23.886Z,61088.00
2019-04-04T08:26:23.927Z,60640.00
2019-04-04T08:27:23.964Z,59360.00
2019-04-04T08:28:24.006Z,58656.00
2019-04-04T08:29:24.042Z,60832.00
2019-04-04T08:30:24.085Z,61248.00
2019-04-04T08:31:24.124Z,60256.00
2019-04-04T08:32:24.166Z,60416.00
2019-04-04T08:33:24.204Z,59488.00
2019-04-04T08:34:24.252Z,59296.00
2019-04-04T08:35:24.285Z,58464.00
2019-04-04T08:36:24.322Z,57984.00
2019-04-04T08:37:24.366Z,60256.00
2019-04-04T08:38:24.408Z,61792.00
2019-04-04T08:39:24.442Z,61216.00
2019-04-04T08:40:24.484Z,62112.00
2019-04-04T08:41:24.523Z,60448.00
2019-04-04T08:42:24.560Z,60864.00
2019-04-04T08:43:24.600Z,61888.00
2019-04-04T08:44:24.643Z,59872.00
2019-04-04T08:45:24.680Z,59136.00
2019-04-04T08:46:24.719Z,61280.00
2019-04-04T08:47:24.766Z,63648.00
2019-04-04T08:48:24.799Z,61984.00
2019-04-04T08:49:24.839Z,59296.00
2019-04-04T08:50:24.880Z,60000.00
2019-04-04T08:51:24.922Z,61440.00
2019-04-04T08:52:24.962Z,61376.00
2019-04-04T08:53:25.007Z,59168.00
2019-04-04T08:54:25.039Z,59072.00
2019-04-04T08:55:25.081Z,61824.00
2019-04-04T08:56:25.125Z,63968.00
2019-04-04T08:57:25.164Z,63712.00
2019-04-04T08:58:25.207Z,63328.00
2019-04-04T08:59:25.244Z,62720.00
2019-04-04T09:00:25.281Z,62048.00
2019-04-04T09:01:25.325Z,58144.00
2019-04-04T09:02:25.361Z,53312.00
2019-04-04T09:03:25.402Z,51360.00
2019-04-04T09:04:25.443Z,48608.00
2019-04-04T09:05:25.485Z,47616.00
2019-04-04T09:06:25.522Z,45952.00
2019-04-04T09:07:25.563Z,44992.00
2019-04-04T09:08:25.607Z,43520.00
2019-04-04T09:09:25.679Z,42112.00
2019-04-04T09:10:25.686Z,41536.00
2019-04-04T09:11:25.728Z,38976.00
2019-04-04T09:12:25.766Z,38464.00
2019-04-04T09:13:25.807Z,38720.00
2019-04-04T09:14:25.848Z,38464.00
2019-04-04T09:15:25.889Z,38880.00
2019-04-04T09:16:25.929Z,39296.00
2019-04-04T09:17:25.972Z,39360.00
2019-04-04T09:18:26.023Z,39168.00
2019-04-04T09:19:26.051Z,39904.00
2019-04-04T09:20:26.094Z,40000.00
2019-04-04T09:21:26.134Z,42400.00
2019-04-04T09:22:26.173Z,44896.00
2019-04-04T09:23:26.218Z,45696.00
2019-04-04T09:24:26.258Z,45984.00
2019-04-04T09:25:26.295Z,45856.00
2019-04-04T09:26:26.338Z,44672.00
2019-04-04T09:27:26.380Z,43808.00
2019-04-04T09:28:26.456Z,46368.00
2019-04-04T09:29:26.463Z,46304.00
2019-04-04T09:30:26.502Z,43168.00
2019-04-04T09:31:26.546Z,42176.00
2019-04-04T09:32:26.588Z,40800.00
2019-04-04T09:33:26.638Z,39296.00
2019-04-04T09:34:26.667Z,38528.00
2019-04-04T09:35:26.709Z,37472.00
2019-04-04T09:36:26.750Z,36512.00
2019-04-04T09:37:26.795Z,36096.00
2019-04-04T09:38:29.162Z,36128.00
2019-04-04T09:39:26.876Z,36608.00
2019-04-04T09:40:26.914Z,36032.00
2019-04-04T09:41:26.954Z,35424.00
2019-04-04T09:42:26.999Z,35392.00
2019-04-04T09:43:27.118Z,35296.00
2019-04-04T09:44:27.077Z,35520.00
2019-04-04T09:45:27.122Z,35680.00
2019-04-04T09:46:27.161Z,37440.00
2019-04-04T09:47:27.202Z,40640.00
2019-04-04T09:48:27.242Z,40416.00
2019-04-04T09:49:27.287Z,38656.00
2019-04-04T09:50:27.325Z,38976.00
2019-04-04T09:51:27.366Z,40160.00
2019-04-04T09:52:27.403Z,43104.00
2019-04-04T09:53:27.444Z,49888.00
2019-04-04T09:54:27.483Z,54656.00
2019-04-04T09:55:27.531Z,54304.00
2019-04-04T09:56:27.569Z,54336.00
2019-04-04T09:57:27.606Z,54176.00
2019-04-04T09:58:27.646Z,54144.00
2019-04-04T09:59:27.688Z,52960.00
2019-04-04T10:00:27.728Z,52896.00
2019-04-04T10:01:27.773Z,54336.00
2019-04-04T10:02:27.815Z,56256.00
2019-04-04T10:03:27.851Z,55712.00
2019-04-04T10:04:27.896Z,53856.00
2019-04-04T10:05:27.933Z,49952.00
2019-04-04T10:06:27.975Z,47200.00
2019-04-04T10:07:28.015Z,47104.00
2019-04-04T10:08:28.056Z,48128.00
2019-04-04T10:09:28.096Z,48640.00
2019-04-04T10:10:28.143Z,49184.00
2019-04-04T10:11:28.181Z,45664.00
2019-04-04T10:12:29.691Z,45088.00
2019-04-04T10:13:28.261Z,51072.00
2019-04-04T10:14:28.303Z,58656.00
2019-04-04T10:15:28.345Z,61120.00
2019-04-04T10:16:28.386Z,61824.00
2019-04-04T10:17:28.425Z,68704.00
2019-04-04T10:18:28.466Z,75168.00
2019-04-04T10:19:28.513Z,75392.00
2019-04-04T10:20:28.548Z,74048.00
2019-04-04T10:21:28.588Z,70400.00
2019-04-04T10:22:28.629Z,71840.00
2019-04-04T10:23:28.672Z,73184.00
2019-04-04T10:24:28.713Z,73472.00
2019-04-04T10:25:28.752Z,74144.00
2019-04-04T10:26:28.794Z,74016.00
2019-04-04T10:27:28.835Z,70432.00
2019-04-04T10:28:28.881Z,69568.00
2019-04-04T10:29:28.920Z,70976.00
2019-04-04T10:30:28.959Z,70560.00
2019-04-04T10:31:28.999Z,68736.00
2019-04-04T10:32:29.044Z,65312.00
2019-04-04T10:33:29.082Z,65504.00
2019-04-04T10:34:29.123Z,65952.00
2019-04-04T10:35:29.176Z,62848.00
2019-04-04T10:36:29.205Z,52320.00
2019-04-04T10:37:29.245Z,53664.00
2019-04-04T10:38:29.288Z,63328.00
2019-04-04T10:39:32.640Z,60832.00
2019-04-04T10:40:29.373Z,59936.00
2019-04-04T10:41:29.411Z,66432.00
2019-04-04T10:42:29.450Z,68896.00
2019-04-04T10:43:29.494Z,68064.00
2019-04-04T10:44:29.533Z,67296.00
2019-04-04T10:45:29.573Z,65376.00
2019-04-04T10:46:29.614Z,66016.00
2019-04-04T10:47:29.658Z,66432.00
2019-04-04T10:48:29.700Z,65568.00
2019-04-04T10:49:29.741Z,64352.00
2019-04-04T10:50:30.296Z,65984.00
2019-04-04T10:51:29.821Z,66304.00
2019-04-04T10:52:29.860Z,61088.00
2019-04-04T10:53:29.904Z,59968.00
2019-04-04T10:54:29.945Z,59616.00
2019-04-04T10:55:29.985Z,55808.00
2019-04-04T10:56:30.027Z,47584.00
2019-04-04T10:57:30.067Z,43008.00
2019-04-04T10:58:30.111Z,40864.00
2019-04-04T10:59:30.150Z,38848.00
2019-04-04T11:00:30.192Z,38560.00
2019-04-04T11:01:30.256Z,38272.00
2019-04-04T11:02:30.274Z,37152.00
2019-04-04T11:03:30.315Z,35264.00
2019-04-04T11:04:30.357Z,33984.00
2019-04-04T11:05:30.397Z,35008.00
2019-04-04T11:06:30.440Z,35200.00
2019-04-04T11:07:30.482Z,34464.00
2019-04-04T11:08:30.524Z,35648.00
2019-04-04T11:09:41.311Z,36960.00
2019-04-04T11:10:30.608Z,36768.00
2019-04-04T11:11:30.645Z,35776.00
2019-04-04T11:12:30.688Z,34976.00
2019-04-04T11:13:33.678Z,34624.00
2019-04-04T11:14:30.769Z,34272.00
2019-04-04T11:15:30.811Z,33504.00
2019-04-04T11:16:30.854Z,31744.00
2019-04-04T11:17:30.898Z,29984.00
2019-04-04T11:18:30.933Z,28960.00
2019-04-04T11:19:31.623Z,27936.00
2019-04-04T11:20:31.020Z,27776.00
2019-04-04T11:21:31.063Z,27392.00
2019-04-04T11:22:31.102Z,26560.00
2019-04-04T11:23:31.150Z,26848.00
2019-04-04T11:24:31.182Z,27264.00
2019-04-04T11:25:31.223Z,27072.00
2019-04-04T11:26:31.266Z,26880.00
2019-04-04T11:27:31.310Z,26816.00
2019-04-04T11:28:31.355Z,26464.00
2019-04-04T11:29:31.389Z,26016.00
2019-04-04T11:30:31.445Z,25760.00
2019-04-04T11:31:31.472Z,25056.00
2019-04-04T11:32:31.514Z,23904.00
2019-04-04T11:33:31.554Z,22976.00
2019-04-04T11:34:31.596Z,22880.00
2019-04-04T11:35:31.641Z,22624.00
2019-04-04T11:36:31.684Z,21952.00
2019-04-04T11:37:31.724Z,21728.00
2019-04-04T11:38:31.763Z,22400.00
2019-04-04T11:39:31.809Z,23104.00
2019-04-04T11:40:31.846Z,23808.00
2019-04-04T11:41:31.886Z,23008.00
2019-04-04T11:42:31.927Z,21504.00
2019-04-04T11:43:31.969Z,20832.00
2019-04-04T11:44:32.011Z,20992.00
2019-04-04T11:45:32.054Z,22240.00
2019-04-04T11:46:32.093Z,23328.00
2019-04-04T11:47:32.136Z,22848.00
2019-04-04T11:48:32.176Z,21632.00
2019-04-04T11:49:32.217Z,20896.00
2019-04-04T11:50:32.258Z,20448.00
2019-04-04T11:51:32.299Z,19936.00
2019-04-04T11:52:32.344Z,20096.00
2019-04-04T11:53:32.383Z,20320.00
2019-04-04T11:54:32.425Z,20288.00
2019-04-04T11:55:32.466Z,20352.00
2019-04-04T11:56:32.506Z,20128.00
2019-04-04T11:57:32.548Z,19552.00
2019-04-04T11:58:32.588Z,19136.00
2019-04-04T11:59:32.629Z,19360.00
2019-04-04T12:00:32.678Z,19744.00
2019-04-04T12:01:32.714Z,19872.00
2019-04-04T12:02:33.005Z,19680.00
2019-04-04T12:03:32.797Z,19712.00
2019-04-04T12:04:32.837Z,19904.00
2019-04-04T12:05:32.879Z,20416.00
2019-04-04T12:06:32.925Z,20960.00
2019-04-04T12:07:32.960Z,21536.00
2019-04-04T12:08:33.001Z,21184.00
2019-04-04T12:09:33.041Z,20448.00
2019-04-04T12:10:33.083Z,20032.00
2019-04-04T12:11:33.129Z,19936.00
2019-04-04T12:12:33.183Z,20096.00
2019-04-04T12:13:33.207Z,20192.00